createdAt,value
2018-07-17T00:02:16.069Z,6.30
2018-07-17T00:04:43.671Z,6.67
2018-07-17T00:07:11.279Z,6.20
2018-07-17T00:09:38.876Z,6.20
2018-07-17T00:12:06.594Z,5.97
2018-07-17T00:14:34.190Z,6.30
2018-07-17T00:17:01.790Z,5.33
2018-07-17T00:19:29.356Z,6.10
2018-07-17T00:21:56.950Z,5.47
2018-07-17T00:24:24.498Z,5.83
2018-07-17T00:26:52.049Z,5.73
2018-07-17T00:29:19.838Z,5.60
2018-07-17T00:31:47.300Z,6.60
2018-07-17T00:34:14.834Z,6.10
2018-07-17T00:36:42.438Z,6.40
2018-07-17T00:39:10.116Z,5.60
2018-07-17T00:41:37.637Z,6.93
2018-07-17T00:44:05.215Z,6.57
2018-07-17T00:46:32.812Z,7.17
2018-07-17T00:49:00.368Z,7.00
2018-07-17T00:51:27.974Z,6.73
2018-07-17T00:53:55.494Z,7.20
2018-07-17T00:56:23.066Z,7.40
2018-07-17T00:58:50.698Z,7.10
2018-07-17T01:01:23.754Z,7.97
2018-07-17T01:03:56.962Z,7.87
2018-07-17T01:06:30.180Z,6.63
2018-07-17T01:09:03.386Z,8.20
2018-07-17T01:11:36.520Z,7.33
2018-07-17T01:14:12.998Z,7.60
2018-07-17T01:16:40.557Z,7.87
2018-07-17T01:19:08.112Z,7.80
2018-07-17T01:21:35.697Z,6.70
2018-07-17T01:24:03.277Z,8.17
2018-07-17T01:26:30.836Z,7.53
2018-07-17T01:28:58.377Z,8.50
2018-07-17T01:31:25.984Z,7.30
2018-07-17T01:33:53.521Z,8.67
2018-07-17T01:36:21.107Z,7.90
2018-07-17T01:38:48.675Z,9.70
2018-07-17T01:41:16.318Z,11.30
2018-07-17T01:43:43.895Z,10.40
2018-07-17T01:46:11.443Z,10.80
2018-07-17T01:48:38.927Z,10.60
2018-07-17T01:51:06.562Z,10.80
2018-07-17T01:53:34.089Z,9.90
2018-07-17T01:56:01.658Z,10.87
2018-07-17T01:58:29.214Z,10.47
2018-07-17T02:00:56.661Z,9.57
2018-07-17T02:03:24.237Z,9.73
2018-07-17T02:05:51.770Z,10.20
2018-07-17T02:08:19.316Z,9.97
2018-07-17T02:10:46.888Z,8.77
2018-07-17T02:13:14.398Z,8.17
2018-07-17T02:15:41.950Z,9.30
2018-07-17T02:18:09.501Z,10.50
2018-07-17T02:20:37.062Z,9.87
2018-07-17T02:23:04.609Z,10.43
2018-07-17T02:25:32.144Z,11.20
2018-07-17T02:27:59.702Z,9.67
2018-07-17T02:30:27.256Z,12.40
2018-07-17T02:32:54.830Z,10.17
2018-07-17T02:35:22.414Z,11.83
2018-07-17T02:37:49.964Z,11.10
2018-07-17T02:40:17.636Z,11.47
2018-07-17T02:42:45.166Z,13.13
2018-07-17T02:45:12.732Z,10.90
2018-07-17T02:47:40.292Z,10.90
2018-07-17T02:50:07.900Z,10.90
2018-07-17T02:52:35.482Z,11.03
2018-07-17T02:55:03.179Z,11.10
2018-07-17T02:57:30.770Z,11.80
2018-07-17T02:59:58.347Z,11.07
2018-07-17T03:02:25.885Z,10.90
2018-07-17T03:04:53.481Z,11.07
2018-07-17T03:07:21.097Z,10.90
2018-07-17T03:09:48.662Z,11.00
2018-07-17T03:12:16.260Z,11.60
2018-07-17T03:14:43.849Z,10.60
2018-07-17T03:17:11.509Z,11.13
2018-07-17T03:19:39.111Z,11.03
2018-07-17T03:22:06.660Z,10.90
2018-07-17T03:24:34.338Z,11.23
2018-07-17T03:27:01.824Z,10.90
2018-07-17T03:29:29.366Z,12.77
2018-07-17T03:31:56.932Z,12.13
2018-07-17T03:34:24.497Z,10.43
2018-07-17T03:36:52.097Z,10.33
2018-07-17T03:39:19.721Z,10.90
2018-07-17T03:41:47.327Z,12.17
2018-07-17T03:44:14.866Z,10.90
2018-07-17T03:46:42.459Z,12.37
2018-07-17T03:49:10.037Z,12.10
2018-07-17T03:51:37.583Z,16.30
2018-07-17T03:54:06.029Z,12.73
2018-07-17T03:56:33.597Z,14.37
2018-07-17T03:59:01.065Z,13.90
2018-07-17T04:01:29.546Z,14.50
2018-07-17T04:03:58.425Z,14.30
2018-07-17T04:06:28.038Z,17.83
2018-07-17T04:08:55.850Z,15.73
2018-07-17T04:11:25.218Z,15.37
2018-07-17T04:13:52.745Z,14.50
2018-07-17T04:16:20.319Z,13.80
2018-07-17T04:18:47.836Z,13.90
2018-07-17T04:21:15.424Z,12.60
2018-07-17T04:23:42.989Z,12.20
2018-07-17T04:26:10.517Z,14.00
2018-07-17T04:28:37.990Z,13.30
2018-07-17T04:31:05.961Z,13.53
2018-07-17T04:33:33.509Z,14.20
2018-07-17T04:36:01.059Z,14.13
2018-07-17T04:38:28.707Z,14.43
2018-07-17T04:40:56.289Z,13.70
2018-07-17T04:43:23.892Z,13.40
2018-07-17T04:45:51.506Z,12.67
2018-07-17T04:48:19.601Z,13.70
2018-07-17T04:50:47.188Z,14.93
2018-07-17T04:53:14.865Z,13.50
2018-07-17T04:55:42.517Z,16.07
2018-07-17T04:58:10.145Z,13.63
2018-07-17T05:00:38.057Z,13.30
2018-07-17T05:03:05.621Z,12.23
2018-07-17T05:05:33.213Z,15.23
2018-07-17T05:08:00.748Z,14.23
2018-07-17T05:10:28.304Z,15.87
2018-07-17T05:12:55.886Z,17.87
2018-07-17T05:15:23.511Z,18.00
2018-07-17T05:18:11.633Z,16.90
2018-07-17T05:20:54.155Z,17.93
2018-07-17T05:23:24.144Z,18.30
2018-07-17T05:25:51.768Z,17.40
2018-07-17T05:28:32.256Z,18.37
2018-07-17T05:30:59.872Z,17.80
2018-07-17T05:33:40.111Z,18.50
2018-07-17T05:38:50.487Z,18.47
2018-07-17T05:41:18.157Z,16.83
2018-07-17T05:43:45.688Z,17.07
2018-07-17T05:46:13.278Z,19.77
2018-07-17T05:48:40.845Z,15.60
2018-07-17T05:51:08.466Z,17.17
2018-07-17T05:53:36.096Z,15.27
2018-07-17T05:56:03.695Z,15.53
2018-07-17T05:58:31.242Z,15.67
2018-07-17T06:00:58.808Z,14.90
2018-07-17T06:03:26.481Z,16.23
2018-07-17T06:05:54.028Z,15.17
2018-07-17T06:08:21.585Z,15.47
2018-07-17T06:10:49.154Z,13.50
2018-07-17T06:13:16.709Z,13.03
2018-07-17T06:15:44.271Z,14.77
2018-07-17T06:18:11.854Z,14.80
2018-07-17T06:20:39.460Z,14.43
2018-07-17T06:23:07.051Z,14.10
2018-07-17T06:25:34.614Z,15.07
2018-07-17T06:28:02.223Z,14.57
2018-07-17T06:30:29.842Z,15.30
2018-07-17T06:32:57.480Z,15.30
2018-07-17T06:35:25.124Z,14.67
2018-07-17T06:37:52.729Z,13.93
2018-07-17T06:40:20.299Z,13.90
2018-07-17T06:42:47.921Z,15.30
2018-07-17T06:45:15.470Z,16.67
2018-07-17T06:47:43.047Z,16.47
2018-07-17T06:50:10.654Z,16.20
2018-07-17T06:52:38.235Z,14.30
2018-07-17T06:55:05.849Z,15.90
2018-07-17T06:57:33.397Z,13.57
2018-07-17T07:00:00.963Z,13.90
2018-07-17T07:02:28.528Z,13.10
2018-07-17T07:04:56.104Z,12.70
2018-07-17T07:07:23.670Z,13.17
2018-07-17T07:09:51.230Z,14.70
2018-07-17T07:12:18.794Z,13.90
2018-07-17T07:14:46.364Z,14.33
2018-07-17T07:17:13.921Z,14.57
2018-07-17T07:19:41.499Z,13.60
2018-07-17T07:22:09.040Z,12.90
2018-07-17T07:24:36.602Z,13.17
2018-07-17T07:27:04.216Z,12.20
2018-07-17T07:29:31.755Z,11.77
2018-07-17T07:31:59.291Z,12.60
2018-07-17T07:34:26.876Z,13.40
2018-07-17T07:36:54.486Z,12.00
2018-07-17T07:39:22.022Z,12.40
2018-07-17T07:41:49.572Z,12.53
2018-07-17T07:44:17.144Z,11.93
2018-07-17T07:46:44.693Z,12.20
2018-07-17T07:49:12.284Z,11.40
2018-07-17T07:51:39.883Z,11.60
2018-07-17T07:54:07.485Z,12.33
2018-07-17T07:56:34.987Z,11.80
2018-07-17T07:59:02.576Z,11.50
2018-07-17T08:01:30.146Z,11.97
2018-07-17T08:03:57.705Z,11.20
2018-07-17T08:06:25.138Z,11.87
2018-07-17T08:08:52.636Z,10.27
2018-07-17T08:11:20.155Z,10.50
2018-07-17T08:13:47.723Z,11.07
2018-07-17T08:16:15.353Z,9.80
2018-07-17T08:18:42.901Z,10.47
2018-07-17T08:21:10.472Z,11.00
2018-07-17T08:23:37.925Z,10.40
2018-07-17T08:26:05.521Z,9.67
2018-07-17T08:28:33.073Z,9.40
2018-07-17T08:31:00.656Z,9.60
2018-07-17T08:33:28.221Z,10.40
2018-07-17T08:35:55.813Z,9.33
2018-07-17T08:38:23.375Z,10.30
2018-07-17T08:40:51.040Z,9.80
2018-07-17T08:43:18.673Z,12.07
2018-07-17T08:45:46.177Z,9.73
2018-07-17T08:48:13.753Z,11.73
2018-07-17T08:50:41.307Z,10.57
2018-07-17T08:53:08.944Z,9.60
2018-07-17T08:55:36.544Z,10.20
2018-07-17T08:58:04.191Z,10.57
2018-07-17T09:00:31.862Z,9.50
2018-07-17T09:02:59.388Z,9.53
2018-07-17T09:05:27.006Z,9.00
2018-07-17T09:07:54.597Z,9.17
2018-07-17T09:10:22.189Z,9.13
2018-07-17T09:12:49.731Z,9.60
2018-07-17T09:15:17.311Z,8.47
2018-07-17T09:17:44.907Z,8.63
2018-07-17T09:20:12.430Z,8.80
2018-07-17T09:22:39.987Z,8.90
2018-07-17T09:25:07.673Z,8.57
2018-07-17T09:27:35.279Z,7.70
2018-07-17T09:30:02.897Z,8.40
2018-07-17T09:32:37.295Z,8.80
2018-07-17T09:35:04.889Z,8.40
2018-07-17T09:37:32.473Z,9.67
2018-07-17T09:40:00.255Z,8.83
2018-07-17T09:42:27.769Z,7.97
2018-07-17T09:44:55.308Z,8.77
2018-07-17T09:47:22.914Z,8.00
2018-07-17T09:49:50.448Z,8.30
2018-07-17T09:52:17.978Z,7.73
2018-07-17T09:54:45.845Z,7.13
2018-07-17T09:57:13.453Z,7.47
2018-07-17T09:59:41.151Z,7.93
2018-07-17T10:02:14.209Z,7.50
2018-07-17T10:04:42.088Z,7.13
2018-07-17T10:07:09.733Z,6.70
2018-07-17T10:09:37.330Z,5.67
2018-07-17T10:12:04.905Z,6.50
2018-07-17T10:14:32.541Z,5.00
2018-07-17T10:17:00.060Z,6.20
2018-07-17T10:19:27.688Z,5.50
2018-07-17T10:21:55.450Z,5.07
2018-07-17T10:24:23.030Z,6.70
2018-07-17T10:26:50.591Z,6.40
2018-07-17T10:29:18.155Z,5.90
2018-07-17T10:31:45.751Z,4.60
2018-07-17T10:34:13.288Z,4.97
2018-07-17T10:36:40.882Z,4.30
2018-07-17T10:39:09.224Z,4.70
2018-07-17T10:41:37.168Z,4.77
2018-07-17T10:44:04.747Z,5.00
2018-07-17T10:46:32.431Z,4.90
2018-07-17T10:48:59.982Z,4.67
2018-07-17T10:51:27.553Z,4.40
2018-07-17T10:53:55.176Z,4.40
2018-07-17T10:56:22.794Z,5.10
2018-07-17T10:58:50.399Z,3.90
2018-07-17T11:01:18.290Z,4.10
2018-07-17T11:03:45.948Z,4.43
2018-07-17T11:06:13.611Z,4.07
2018-07-17T11:08:41.249Z,4.00
2018-07-17T11:11:09.083Z,5.03
2018-07-17T11:13:36.706Z,4.30
2018-07-17T11:16:04.593Z,4.50
2018-07-17T11:18:32.132Z,4.50
2018-07-17T11:20:59.745Z,4.30
2018-07-17T11:23:27.347Z,4.90
2018-07-17T11:25:54.937Z,4.70
2018-07-17T11:28:22.499Z,4.77
2018-07-17T11:30:50.081Z,4.87
2018-07-17T11:33:17.696Z,4.20
2018-07-17T11:35:45.387Z,3.77
2018-07-17T11:38:12.977Z,4.30
2018-07-17T11:40:40.549Z,4.10
2018-07-17T11:43:07.978Z,4.30
2018-07-17T11:45:35.557Z,3.33
2018-07-17T11:48:03.137Z,3.13
2018-07-17T11:50:30.659Z,3.47
2018-07-17T11:52:58.224Z,3.40
2018-07-17T11:55:25.826Z,3.50
2018-07-17T11:57:53.786Z,4.03
2018-07-17T12:00:21.411Z,3.57
2018-07-17T12:02:48.992Z,3.27
2018-07-17T12:05:16.602Z,2.87
2018-07-17T12:07:44.208Z,3.00
2018-07-17T12:10:11.772Z,3.23
2018-07-17T12:12:39.417Z,3.00
2018-07-17T12:15:07.094Z,3.53
2018-07-17T12:17:34.713Z,3.67
2018-07-17T12:20:02.412Z,3.67
2018-07-17T12:22:29.877Z,3.93
2018-07-17T12:24:57.532Z,3.57
2018-07-17T12:27:25.116Z,3.43
2018-07-17T12:29:52.662Z,2.97
2018-07-17T12:32:20.325Z,3.07
2018-07-17T12:34:47.913Z,3.23
2018-07-17T12:37:15.479Z,3.40
2018-07-17T12:39:43.134Z,3.03
2018-07-17T12:42:10.751Z,3.13
2018-07-17T12:44:38.375Z,2.93
2018-07-17T12:47:06.011Z,2.67
2018-07-17T12:49:33.626Z,3.30
2018-07-17T12:52:01.223Z,2.83
2018-07-17T12:54:29.316Z,3.30
2018-07-17T12:56:56.805Z,2.93
2018-07-17T12:59:24.351Z,3.17
2018-07-17T13:01:51.931Z,2.53
2018-07-17T13:04:19.547Z,3.33
2018-07-17T13:06:47.193Z,3.40
2018-07-17T13:09:14.647Z,2.97
2018-07-17T13:11:42.252Z,2.77
2018-07-17T13:14:10.543Z,3.20
2018-07-17T13:16:38.144Z,2.40
2018-07-17T13:19:05.743Z,2.60
2018-07-17T13:21:33.312Z,3.00
2018-07-17T13:24:00.879Z,2.40
2018-07-17T13:26:28.478Z,2.60
2018-07-17T13:28:56.040Z,2.90
2018-07-17T13:31:23.651Z,3.00
2018-07-17T13:33:51.213Z,2.87
2018-07-17T13:36:18.824Z,2.90
2018-07-17T13:38:46.420Z,3.20
2018-07-17T13:41:14.138Z,3.03
2018-07-17T13:43:41.718Z,2.73
2018-07-17T13:46:09.305Z,2.73
2018-07-17T13:48:36.882Z,2.80
2018-07-17T13:51:04.477Z,3.47
2018-07-17T13:53:32.070Z,3.13
2018-07-17T13:55:59.752Z,2.73
2018-07-17T13:58:27.256Z,2.63
2018-07-17T14:00:54.877Z,3.10
2018-07-17T14:03:22.456Z,2.77
2018-07-17T14:05:50.012Z,2.70
2018-07-17T14:08:17.637Z,3.13
2018-07-17T14:10:45.223Z,3.13
2018-07-17T14:13:12.816Z,2.67
2018-07-17T14:15:40.432Z,3.00
2018-07-17T14:18:07.974Z,3.43
2018-07-17T14:20:35.823Z,2.60
2018-07-17T14:23:03.457Z,3.23
2018-07-17T14:25:31.006Z,2.57
2018-07-17T14:27:58.572Z,2.37
2018-07-17T14:30:26.217Z,2.63
2018-07-17T14:32:53.761Z,2.40
2018-07-17T14:35:21.369Z,2.47
2018-07-17T14:37:48.938Z,3.13
2018-07-17T14:40:16.623Z,3.07
2018-07-17T14:42:44.203Z,2.43
2018-07-17T14:45:11.817Z,2.93
2018-07-17T14:47:39.409Z,2.87
2018-07-17T14:50:07.827Z,2.63
2018-07-17T14:52:35.363Z,3.20
2018-07-17T14:55:03.097Z,2.57
2018-07-17T14:57:30.706Z,3.00
2018-07-17T14:59:58.256Z,2.60
2018-07-17T15:02:25.960Z,2.60
2018-07-17T15:04:53.537Z,3.27
2018-07-17T15:07:21.090Z,2.50
2018-07-17T15:09:48.687Z,2.43
2018-07-17T15:12:16.306Z,3.00
2018-07-17T15:14:43.876Z,2.90
2018-07-17T15:17:11.538Z,2.63
2018-07-17T15:19:39.116Z,3.10
2018-07-17T15:22:06.754Z,2.97
2018-07-17T15:24:34.362Z,3.23
2018-07-17T15:27:01.941Z,3.73
2018-07-17T15:29:29.510Z,3.77
2018-07-17T15:31:57.135Z,3.13
2018-07-17T15:34:24.706Z,3.07
2018-07-17T15:36:52.308Z,3.80
2018-07-17T15:39:19.966Z,3.27
2018-07-17T15:41:47.604Z,3.20
2018-07-17T15:44:15.178Z,3.70
2018-07-17T15:46:42.806Z,3.37
2018-07-17T15:49:10.369Z,3.73
2018-07-17T15:51:37.980Z,4.20
2018-07-17T15:54:05.989Z,3.80
2018-07-17T15:56:33.551Z,3.70
2018-07-17T15:59:01.078Z,3.13
2018-07-17T16:01:28.650Z,2.47
2018-07-17T16:03:56.233Z,3.10
2018-07-17T16:06:23.822Z,2.93
2018-07-17T16:08:51.494Z,2.50
2018-07-17T16:11:19.088Z,2.67
2018-07-17T16:13:46.801Z,2.73
2018-07-17T16:16:14.262Z,2.57
2018-07-17T16:18:41.876Z,2.80
2018-07-17T16:21:09.572Z,2.70
2018-07-17T16:23:37.075Z,2.60
2018-07-17T16:26:04.746Z,3.13
2018-07-17T16:28:32.381Z,3.20
2018-07-17T16:31:00.019Z,3.50
2018-07-17T16:33:27.626Z,3.20
2018-07-17T16:35:55.197Z,3.40
2018-07-17T16:38:25.793Z,3.60
2018-07-17T16:40:53.427Z,3.90
2018-07-17T16:43:20.986Z,3.80
2018-07-17T16:45:48.554Z,3.50
2018-07-17T16:48:16.114Z,3.80
2018-07-17T16:50:43.699Z,4.03
2018-07-17T16:53:11.284Z,4.20
2018-07-17T16:55:38.909Z,3.77
2018-07-17T16:58:06.518Z,3.70
2018-07-17T17:00:34.097Z,4.30
2018-07-17T17:03:01.711Z,3.67
2018-07-17T17:05:29.262Z,3.50
2018-07-17T17:07:56.851Z,3.47
2018-07-17T17:10:24.603Z,3.20
2018-07-17T17:12:52.176Z,3.63
2018-07-17T17:15:19.790Z,3.30
2018-07-17T17:17:47.383Z,3.40
2018-07-17T17:20:15.029Z,3.47
2018-07-17T17:22:42.633Z,3.30
2018-07-17T17:25:10.177Z,3.10
2018-07-17T17:27:37.736Z,2.70
2018-07-17T17:30:05.331Z,3.40
2018-07-17T17:32:33.079Z,2.70
2018-07-17T17:35:00.703Z,3.10
2018-07-17T17:37:28.364Z,3.77
2018-07-17T17:39:56.091Z,3.03
2018-07-17T17:42:23.620Z,3.40
2018-07-17T17:44:51.221Z,3.37
2018-07-17T17:47:18.767Z,2.83
2018-07-17T17:49:46.314Z,2.63
2018-07-17T17:52:13.943Z,2.80
2018-07-17T17:54:41.798Z,3.40
2018-07-17T17:57:09.640Z,2.53
2018-07-17T17:59:37.261Z,2.90
2018-07-17T18:02:05.062Z,3.30
2018-07-17T18:04:32.686Z,3.10
2018-07-17T18:07:00.278Z,2.90
2018-07-17T18:09:27.882Z,2.97
2018-07-17T18:11:55.642Z,3.13
2018-07-17T18:14:23.281Z,3.00
2018-07-17T18:16:50.919Z,2.90
2018-07-17T18:19:18.729Z,2.90
2018-07-17T18:21:46.413Z,2.97
2018-07-17T18:24:14.149Z,3.73
2018-07-17T18:26:41.772Z,3.00
2018-07-17T18:29:09.409Z,3.43
2018-07-17T18:31:37.084Z,3.60
2018-07-17T18:34:04.929Z,2.67
2018-07-17T18:36:32.575Z,3.30
2018-07-17T18:39:00.341Z,3.87
2018-07-17T18:41:28.198Z,3.60
2018-07-17T18:43:55.910Z,3.70
2018-07-17T18:46:23.580Z,3.50
2018-07-17T18:48:51.241Z,3.70
2018-07-17T18:51:18.975Z,3.97
2018-07-17T18:53:46.898Z,3.87
2018-07-17T18:56:14.760Z,3.60
2018-07-17T18:58:43.529Z,3.80
2018-07-17T19:01:11.364Z,3.27
2018-07-17T19:03:39.117Z,4.50
2018-07-17T19:06:07.358Z,3.43
2018-07-17T19:08:35.206Z,3.57
2018-07-17T19:11:03.648Z,3.20
2018-07-17T19:13:31.303Z,3.40
2018-07-17T19:15:59.714Z,3.80
2018-07-17T19:18:27.327Z,4.00
2018-07-17T19:20:55.033Z,3.70
2018-07-17T19:23:22.684Z,3.30
2018-07-17T19:25:50.400Z,3.30
2018-07-17T19:28:18.266Z,3.83
2018-07-17T19:30:45.984Z,3.47
2018-07-17T19:33:13.682Z,4.90
2018-07-17T19:35:41.360Z,4.30
2018-07-17T19:38:09.576Z,3.67
2018-07-17T19:40:38.160Z,3.90
2018-07-17T19:43:05.967Z,3.70
2018-07-17T19:45:34.447Z,3.83
2018-07-17T19:48:02.422Z,4.27
2018-07-17T19:50:30.149Z,3.83
2018-07-17T19:52:57.827Z,4.00
2018-07-17T19:55:25.561Z,3.67
2018-07-17T19:57:53.575Z,4.30
2018-07-17T20:00:21.399Z,4.30
2018-07-17T20:02:49.059Z,4.17
2018-07-17T20:05:17.515Z,4.40
2018-07-17T20:07:45.354Z,4.77
2018-07-17T20:10:13.604Z,3.77
2018-07-17T20:12:41.622Z,3.60
2018-07-17T20:15:09.389Z,5.57
2018-07-17T20:17:37.098Z,5.17
2018-07-17T20:20:07.158Z,4.87
2018-07-17T20:22:34.967Z,4.17
2018-07-17T20:25:02.729Z,3.97
2018-07-17T20:27:30.411Z,5.00
2018-07-17T20:29:58.105Z,3.90
2018-07-17T20:32:26.053Z,4.00
2018-07-17T20:34:53.728Z,3.87
2018-07-17T20:37:21.680Z,4.27
2018-07-17T20:39:49.468Z,3.40
2018-07-17T20:42:17.080Z,4.57
2018-07-17T20:44:44.723Z,3.90
2018-07-17T20:47:12.406Z,4.53
2018-07-17T20:49:40.026Z,4.50
2018-07-17T20:52:07.625Z,3.77
2018-07-17T20:54:35.318Z,3.83
2018-07-17T20:57:02.971Z,3.70
2018-07-17T20:59:30.536Z,4.00
2018-07-17T21:01:58.124Z,3.50
2018-07-17T21:04:25.679Z,2.93
2018-07-17T21:06:53.259Z,3.70
2018-07-17T21:09:20.839Z,3.50
2018-07-17T21:11:48.394Z,3.60
2018-07-17T21:14:15.965Z,4.00
2018-07-17T21:16:43.524Z,3.70
2018-07-17T21:19:11.091Z,3.30
2018-07-17T21:21:38.674Z,3.90
2018-07-17T21:24:06.221Z,3.60
2018-07-17T21:26:33.818Z,3.47
2018-07-17T21:29:01.364Z,3.10
2018-07-17T21:31:28.970Z,3.73
2018-07-17T21:33:56.534Z,3.60
2018-07-17T21:36:24.116Z,3.53
2018-07-17T21:38:51.684Z,3.53
2018-07-17T21:41:19.422Z,3.30
2018-07-17T21:43:47.026Z,3.70
2018-07-17T21:46:14.598Z,3.60
2018-07-17T21:48:42.150Z,3.13
2018-07-17T21:51:09.741Z,3.40
2018-07-17T21:53:37.320Z,3.47
2018-07-17T21:56:05.040Z,3.60
2018-07-17T21:58:32.616Z,3.37
2018-07-17T22:01:00.208Z,3.37
2018-07-17T22:03:27.754Z,3.50
2018-07-17T22:05:55.346Z,3.30
2018-07-17T22:08:22.877Z,3.50
2018-07-17T22:10:50.486Z,3.57
2018-07-17T22:13:18.088Z,3.33
2018-07-17T22:15:45.624Z,3.87
2018-07-17T22:18:13.166Z,3.53
2018-07-17T22:20:40.774Z,3.73
2018-07-17T22:23:08.624Z,4.63
2018-07-17T22:25:36.191Z,3.53
2018-07-17T22:28:03.837Z,3.23
2018-07-17T22:30:31.380Z,4.00
2018-07-17T22:32:58.897Z,3.90
2018-07-17T22:35:26.437Z,3.40
2018-07-17T22:37:54.026Z,3.70
2018-07-17T22:40:21.660Z,3.40
2018-07-17T22:42:49.259Z,3.80
2018-07-17T22:45:16.833Z,4.53
2018-07-17T22:47:44.389Z,3.70
2018-07-17T22:50:11.958Z,3.57
2018-07-17T22:52:39.530Z,3.90
2018-07-17T22:55:07.085Z,4.10
2018-07-17T22:57:34.636Z,3.83
2018-07-17T23:00:02.248Z,3.63
2018-07-17T23:02:29.836Z,4.10
2018-07-17T23:04:57.357Z,3.33
2018-07-17T23:07:31.704Z,3.73
2018-07-17T23:09:59.290Z,3.60
2018-07-17T23:12:26.862Z,3.80
2018-07-17T23:14:54.412Z,3.60
2018-07-17T23:17:21.952Z,4.50
2018-07-17T23:19:49.536Z,3.80
2018-07-17T23:22:22.810Z,3.70
2018-07-17T23:24:50.409Z,4.07
2018-07-17T23:27:17.971Z,3.70
2018-07-17T23:29:45.535Z,4.23
2018-07-17T23:32:13.138Z,3.97
2018-07-17T23:34:40.664Z,3.73
2018-07-17T23:37:08.191Z,4.23
2018-07-17T23:39:35.818Z,3.70
2018-07-17T23:42:03.388Z,3.60
2018-07-17T23:44:30.929Z,4.10
2018-07-17T23:46:58.429Z,3.40
2018-07-17T23:49:31.529Z,3.90
2018-07-17T23:51:59.061Z,3.63
2018-07-17T23:54:26.620Z,4.07
2018-07-17T23:56:54.198Z,3.83
2018-07-17T23:59:21.724Z,3.83
